Weather reports worldwide

Advertisment
Rodkallen, Sweden (2188): temperature & dewpoint: 15.01.2020 23:00:00 - 21.01.2020 23:00:00 (CET)Rodkallen, Sweden (2188): wind speed & gusts: 15.01.2020 23:00:00 - 21.01.2020 23:00:00 (CET)Rodkallen, Sweden (2188): wind direction: 15.01.2020 23:00:00 - 21.01.2020 23:00:00 (CET)Rodkallen, Sweden (2188): visibility: 15.01.2020 23:00:00 - 21.01.2020 23:00:00 (CET)Rodkallen, Sweden (2188): precipitation: 15.01.2020 23:00:00 - 21.01.2020 23:00:00 (CET)
Date & Time tt [°C] td [°C] ff [km/h] ff [kn] fx [km/h] fx [kn] dd vv [km] rr [mm]
21.01.2020 23:00:00 0,2 -4,4 32 18 50 27 W 50 0,0
21.01.2020 22:00:00 0,2 -4,6 35 19 51 27 W 50 0,0
21.01.2020 21:00:00 0,1 -4,3 37 20 50 27 W 50 0,0
21.01.2020 20:00:00 0,3 -4,3 39 21 58 31 W 50 0,0
21.01.2020 19:00:00 0,5 -3,8 41 22 59 32 W 50 0,0
21.01.2020 18:00:00 0,7 -4,1 45 24 59 32 WSW 50 0,0
21.01.2020 17:00:00 1,0 -4,0 45 24 63 34 WSW 50 0,0
21.01.2020 16:00:00 1,0 -3,7 34 19 47 25 W 50 0,0
21.01.2020 15:00:00 1,0 -3,3 39 21 54 29 W 50 0,0
21.01.2020 14:00:00 1,2 -3,9 39 21 52 28 WSW 50 0,0
21.01.2020 13:00:00 1,4 -3,7 38 20 46 25 WSW 50 0,0
21.01.2020 12:00:00 1,2 -3,5 35 19 49 26 WSW 50 0,0
21.01.2020 11:00:00 1,2 -3,7 34 19 46 25 W 45 0,0
21.01.2020 10:00:00 1,4 -3,6 34 19 42 23 WSW 47 0,0
21.01.2020 09:00:00 1,6 -3,3 32 17 56 31 W 50 0,0
21.01.2020 08:00:00 2,1 -4,0 41 22 66 36 W 50 0,0
21.01.2020 07:00:00 3,3 -3,7 51 27 65 35 W 50 0,0
21.01.2020 06:00:00 3,5 -1,8 36 20 48 26 W 50 0,0
21.01.2020 05:00:00 2,7 -1,3 23 12 38 20 WSW 50 0,0
21.01.2020 04:00:00 2,8 -0,6 30 16 42 23 W 50 0,0
21.01.2020 03:00:00 3,2 -0,6 31 17 44 24 W 50 0,0
21.01.2020 02:00:00 3,4 -0,8 38 21 47 26 W 50 0,0
21.01.2020 01:00:00 3,5 -0,7 32 18 51 28 W 50 0,0
21.01.2020 00:00:00 4,0 0,2 33 18 51 28 WSW 50 0,0
20.01.2020 23:00:00 3,5 1,4 40 22 50 27 SW 50 0,0
20.01.2020 22:00:00 2,3 1,2 42 23 51 27 SSW 50 0,0
20.01.2020 21:00:00 2,3 1,3 43 23 58 31 SSW 50 0,0
20.01.2020 20:00:00 2,1 0,9 45 24 58 31 SSW 50 0,0
20.01.2020 19:00:00 2,4 1,1 50 27 61 33 SSW 50 0,0
20.01.2020 18:00:00 1,9 0,4 41 22 59 32 SSW 50 0,0
20.01.2020 17:00:00 2,3 0,8 34 19 46 25 SW 50 0,0
20.01.2020 16:00:00 1,6 0,2 39 21 48 26 SSW 50 0,0
20.01.2020 15:00:00 1,9 0,4 41 22 50 27 SSW 50 0,0
20.01.2020 14:00:00 1,4 0,2 34 19 45 25 SSW 50 0,0
20.01.2020 13:00:00 1,6 0,3 37 20 44 24 SSW 50 0,0
20.01.2020 12:00:00 1,7 0,2 38 20 48 26 SSW 50 0,0
20.01.2020 11:00:00 1,4 -0,1 37 20 46 25 SSW 50 0,0
20.01.2020 10:00:00 1,4 -0,1 39 21 51 28 SSW 50 0,0
20.01.2020 09:00:00 1,2 -0,4 36 20 50 27 SSW 50 0,0
20.01.2020 08:00:00 1,1 -0,5 41 22 51 28 SSW 43 0,0
20.01.2020 07:00:00 0,8 -0,7 40 22 51 28 SSW 38 0,0
20.01.2020 06:00:00 0,3 -0,7 35 19 42 23 S 10 0,3
20.01.2020 05:00:00 -0,1 -1,7 28 15 37 20 S 39 0,0
20.01.2020 04:00:00 -0,3 -2,2 35 19 42 23 SSW 50 0,0
20.01.2020 03:00:00 -0,8 -2,4 34 19 42 23 SSW 50 0,0
20.01.2020 02:00:00 -1,3 -2,9 34 18 41 22 SSW 50 0,0
20.01.2020 01:00:00 -1,7 -3,4 31 17 38 21 SSW 50 0,0
20.01.2020 00:00:00 -2,6 -4,3 22 12 29 15 SSW 50 0,0
19.01.2020 23:00:00 -3,1 -5,6 23 13 30 16 SSW 50 0,0
19.01.2020 22:00:00 -3,5 -6,1 16 9 25 14 SW 50 0,0
19.01.2020 21:00:00 -3,8 -6,9 12 7 23 13 W 50 0,0
19.01.2020 20:00:00 -4,7 -7,5 9 5 34 19 WNW 50 0,0
19.01.2020 19:00:00 -3,3 -5,9 31 17 37 20 WNW 34 0,0
19.01.2020 18:00:00 -3,2 -6,3 23 13 32 17 WNW 50 0,0
19.01.2020 17:00:00 -3,6 -6,2 21 11 34 19 NW 47 0,0
19.01.2020 16:00:00 -3,6 -6,3 21 12 37 20 NW 50 0,0
19.01.2020 15:00:00 -3,7 -6,3 27 15 51 28 NW 40 0,0
19.01.2020 14:00:00 -3,9 -6,2 31 17 44 24 NW 33 0,0
19.01.2020 13:00:00 -4,3 -6,9 27 15 40 21 NW 47 0,0
19.01.2020 12:00:00 -4,5 -7,1 29 16 41 22 NW 29 0,0
19.01.2020 11:00:00 -4,5 -6,9 30 16 45 24 NW 40 0,0
19.01.2020 10:00:00 -4,3 -6,6 29 16 48 26 NW 35 0,0
19.01.2020 09:00:00 -4,2 -6,3 32 17 47 26 NW 22 0,0
19.01.2020 08:00:00 -4,0 -6,1 32 18 50 27 NW 9 0,0
19.01.2020 07:00:00 -4,2 -6,0 36 19 49 27 NW 3,2 0,0
19.01.2020 06:00:00 -4,4 -6,2 30 16 44 24 NW 5 0,0
19.01.2020 05:00:00 -4,5 -6,2 30 16 44 24 NW 3,0 0,0
19.01.2020 04:00:00 -4,5 -6,2 29 16 43 23 NW 2,6 0,0
19.01.2020 03:00:00 -4,6 -6,3 29 16 43 23 NW 4,0 0,0
19.01.2020 02:00:00 -4,6 -6,3 27 15 39 21 NW 8 0,0
19.01.2020 01:00:00 -4,8 -6,5 26 14 40 22 NW 6 0,0
19.01.2020 00:00:00 -4,9 -6,4 29 15 38 21 NW 8 0,0
18.01.2020 23:00:00 -4,7 -6,1 25 14 37 20 NW 9 0,1
18.01.2020 22:00:00 -4,6 -5,9 22 12 35 19 NNW 1,3 0,2
18.01.2020 21:00:00 -4,5 -5,9 23 12 39 21 NNW 2,8 0,2
18.01.2020 20:00:00 -4,5 -6,0 28 15 40 22 NNW 3,7 0,0
18.01.2020 19:00:00 -4,3 -5,7 26 14 40 22 NNW 2,3 0,3
18.01.2020 18:00:00 -4,2 -5,3 24 13 37 20 NNW 1,1 0,5
18.01.2020 17:00:00 -4,3 -5,4 23 13 35 19 NNW 0,8 0,6
18.01.2020 16:00:00 -4,2 -5,3 22 12 34 18 NNW 0,9 0,6
18.01.2020 15:00:00 -4,1 -5,1 27 14 35 19 NNW 0,8 0,6
18.01.2020 14:00:00 -4,2 -5,2 26 14 35 19 N 0,8 0,7
18.01.2020 13:00:00 -4,1 -5,2 24 13 35 19 N 2,1 0,4
18.01.2020 12:00:00 -4,4 -5,5 25 14 34 19 N 1,0 0,5
18.01.2020 11:00:00 -4,4 -5,6 26 14 34 18 N 1,6 0,4
18.01.2020 10:00:00 -4,7 -5,9 25 13 36 19 N 0,9 0,4
18.01.2020 09:00:00 -5,0 -6,4 27 14 37 20 N 2,9 0,2
18.01.2020 08:00:00 -5,3 -6,7 22 12 31 17 N 2,1 0,2
18.01.2020 07:00:00 -5,3 -6,7 22 12 32 18 NNW 1,8 0,2
18.01.2020 06:00:00 -5,3 -6,7 22 12 32 17 N 3,1 0,2
18.01.2020 05:00:00 -5,3 -6,7 25 14 35 19 N 3,6 0,2
18.01.2020 04:00:00 -5,7 -7,2 24 13 34 18 N 2,5 0,2
18.01.2020 03:00:00 -5,9 -7,3 23 13 35 19 N 2,1 0,3
18.01.2020 02:00:00 -5,8 -7,3 22 12 29 16 N 1,6 0,6
18.01.2020 01:00:00 -5,8 -7,2 21 11 27 14 N 1,6 0,3
18.01.2020 00:00:00 -5,1 -6,5 20 11 28 15 N 4,5 0,1
17.01.2020 23:00:00 -4,7 -6,1 24 13 32 17 N 12 -
17.01.2020 22:00:00 -5,1 -6,5 20 11 26 14 N 8 0,1
17.01.2020 21:00:00 -5,4 -6,8 19 10 29 16 N 8 0,0
17.01.2020 20:00:00 -5,5 -6,9 22 12 28 15 N 7 0,1
17.01.2020 19:00:00 -5,7 -7,4 23 13 35 19 NNE 22 0,0
17.01.2020 18:00:00 -5,7 -7,4 26 14 34 18 N 19 0,0
17.01.2020 17:00:00 -5,6 -7,3 20 11 26 14 N 24 0,0
17.01.2020 16:00:00 -5,1 -6,6 19 10 24 13 N 14 0,0
17.01.2020 15:00:00 -5,3 -7,1 16 9 23 12 N 31 0,0
17.01.2020 14:00:00 -5,3 -7,4 17 9 29 15 NNE 33 0,0
17.01.2020 13:00:00 -5,7 -7,7 24 13 34 18 N 42 0,0
17.01.2020 12:00:00 -4,9 -6,7 26 14 35 19 N 36 0,0
17.01.2020 11:00:00 -4,1 -5,6 23 12 33 18 N 33 0,0
17.01.2020 10:00:00 -4,5 -5,5 24 13 31 17 N 27 0,0
17.01.2020 09:00:00 -4,3 -5,1 19 10 26 14 N 46 0,0
17.01.2020 08:00:00 -4,3 -5,1 19 10 24 13 N 9 0,0
17.01.2020 07:00:00 0,5 -0,8 13 7 18 10 WSW 43 0,0
17.01.2020 06:00:00 0,4 -0,9 19 10 23 13 SSW 47 0,0
17.01.2020 05:00:00 0,6 -0,9 21 11 32 17 SW 50 0,0
17.01.2020 04:00:00 0,2 -1,2 18 10 24 13 SSW 50 0,0
17.01.2020 03:00:00 0,0 -1,4 20 11 26 14 SSW 50 0,0
17.01.2020 02:00:00 -0,2 -1,8 16 8 26 14 SW 50 0,0
17.01.2020 01:00:00 0,2 -1,6 22 12 34 19 SW 50 0,0
17.01.2020 00:00:00 0,2 -1,6 29 16 37 20 SW 50 0,0
16.01.2020 23:00:00 0,1 -1,0 28 15 35 19 SSW 47 0,5
16.01.2020 22:00:00 -0,4 -1,3 22 12 37 20 SSW 38 0,0
16.01.2020 21:00:00 -0,2 -1,3 31 17 42 23 SSW 50 0,0
16.01.2020 20:00:00 -0,3 -1,3 26 14 39 21 SSW 50 0,0
16.01.2020 19:00:00 -1,7 -2,8 20 11 28 15 S 6 0,0
16.01.2020 18:00:00 -2,9 -4,8 14 8 20 11 S 32 0,0
16.01.2020 17:00:00 -3,8 -5,6 16 9 21 12 S 50 0,0
16.01.2020 16:00:00 -4,8 -6,0 13 7 19 10 SSW 41 0,0
16.01.2020 15:00:00 -5,7 -6,6 3 1 12 7 SW 14 0,0
16.01.2020 14:00:00 -6,2 -7,3 4 2 10 5 NW 15 0,0
16.01.2020 13:00:00 -5,9 -7,1 10 5 15 8 W 18 0,0
16.01.2020 12:00:00 -5,8 -7,0 5 3 12 6 NW 27 0,0
16.01.2020 11:00:00 -5,9 -7,1 4 2 13 7 NW 50 0,0
16.01.2020 10:00:00 -6,0 -7,3 4 2 11 6 N 50 0,0
16.01.2020 09:00:00 -6,2 -7,7 12 6 22 12 NNE 50 0,0
16.01.2020 08:00:00 -6,2 -7,7 15 8 24 13 N 50 0,0
16.01.2020 07:00:00 -6,5 -8,2 16 8 22 12 NW 50 0,0
16.01.2020 06:00:00 -6,0 -7,4 14 8 24 13 NNW 50 0,0
16.01.2020 05:00:00 -5,6 -6,8 9 5 23 12 NNW 12 0,0
16.01.2020 04:00:00 -5,7 -6,6 17 9 24 13 NW 6 0,0
16.01.2020 03:00:00 -5,0 -5,8 13 7 23 12 NNW 2,1 0,2
16.01.2020 02:00:00 -4,5 -5,2 14 7 21 11 NNW 2,1 0,1
16.01.2020 01:00:00 -4,4 -4,9 14 7 22 12 N 10 -
16.01.2020 00:00:00 -4,3 -4,8 18 10 26 14 N 29 -
15.01.2020 23:00:00 -4,2 -4,6 18 10 23 13 N 50 0,0

tt = temperature
td = dewpoint
ff = wind speed
fx = gusts
dd = wind direction
vv = visibility
rr = precipitation

Next stations